Time;durP1;ratioP1;P1;durP2;ratioP2;P2;SDS_P1;SDS_P2;PMS_P1;PMS_P2;Temp;Humidity;BMP_temperature;BMP_pressure;BME280_temperature;BME280_humidity;BME280_pressure;Samples;Min_cycle;Max_cycle;Signal;HPM_P1;HPM_P2
2021/05/10 00:00:19;;;;;;;1.83;1.50;;;;;;;13.78;97.00;94913.34;1043123;28;20321;-71
2021/05/10 00:00:50;;;;;;;2.05;1.55;;;;;;;13.84;97.25;94909.47;1045348;28;20025;-71
2021/05/10 00:01:20;;;;;;;2.22;1.58;;;;;;;13.79;96.75;94896.44;1046900;28;20033;-71
2021/05/10 00:01:51;;;;;;;3.85;1.92;;;;;;;13.90;96.93;94908.28;1042931;28;20017;-68
2021/05/10 00:02:21;;;;;;;3.72;1.70;;;;;;;13.83;96.45;94896.59;1038912;28;20647;-72
2021/05/10 00:02:52;;;;;;;3.35;1.70;;;;;;;13.88;96.41;94907.81;1034519;28;20395;-72
2021/05/10 00:03:22;;;;;;;1.85;1.48;;;;;;;13.89;96.83;94908.59;1035114;28;20565;-72
2021/05/10 00:03:53;;;;;;;2.42;1.85;;;;;;;13.91;96.88;94906.41;1038959;28;20025;-71
2021/05/10 00:04:23;;;;;;;2.42;1.92;;;;;;;13.74;97.15;94893.91;1038436;28;20029;-73
2021/05/10 00:04:54;;;;;;;3.05;1.70;;;;;;;13.81;97.12;94910.09;1034884;28;20026;-71
2021/05/10 00:05:24;;;;;;;2.95;1.50;;;;;;;13.76;98.13;94902.31;1038388;28;20032;-72
2021/05/10 00:05:54;;;;;;;3.08;1.52;;;;;;;13.71;99.35;94915.63;1045122;28;20017;-71
2021/05/10 00:06:25;;;;;;;6.28;1.60;;;;;;;13.69;100.00;94907.25;1042767;28;20079;-71
2021/05/10 00:06:55;;;;;;;5.03;1.90;;;;;;;13.62;100.00;94912.94;1034748;28;20392;-72
2021/05/10 00:07:26;;;;;;;4.20;1.70;;;;;;;13.58;100.00;94905.94;1027598;28;20756;-71
2021/05/10 00:07:56;;;;;;;6.93;2.10;;;;;;;13.54;100.00;94910.25;1030503;28;20821;-73
2021/05/10 00:08:27;;;;;;;3.40;1.67;;;;;;;13.42;100.00;94893.13;1034768;28;20694;-72
2021/05/10 00:08:57;;;;;;;4.20;2.00;;;;;;;13.47;100.00;94909.91;1043104;28;20458;-72
2021/05/10 00:09:28;;;;;;;6.07;1.90;;;;;;;13.44;100.00;94906.78;1030591;28;20571;-73
2021/05/10 00:09:59;;;;;;;2.72;1.63;;;;;;;13.36;100.00;94904.09;1034498;28;20530;-71
2021/05/10 00:10:30;;;;;;;3.53;1.45;;;;;;;13.34;100.00;94912.28;1042981;28;20021;-71
2021/05/10 00:11:00;;;;;;;2.55;1.88;;;;;;;13.21;100.00;94892.03;1047056;28;20334;-72
2021/05/10 00:11:34;;;;;;;3.58;1.58;;;;;;;13.28;100.00;94910.06;1041990;28;20029;-69
2021/05/10 00:12:05;;;;;;;2.67;1.80;;;;;;;13.23;100.00;94905.69;1038418;28;20033;-72
2021/05/10 00:12:35;;;;;;;4.25;2.10;;;;;;;13.17;100.00;94910.28;1035691;28;20773;-68
2021/05/10 00:13:07;;;;;;;3.63;1.95;;;;;;;13.10;100.00;94904.66;1041356;28;20048;-71
2021/05/10 00:13:42;;;;;;;5.47;1.98;;;;;;;13.12;100.00;94909.63;1038782;28;20024;-71
2021/05/10 00:14:12;;;;;;;2.28;1.67;;;;;;;13.08;100.00;94913.97;1038819;28;20834;-71
2021/05/10 00:14:44;;;;;;;3.25;1.83;;;;;;;12.95;100.00;94897.88;1032241;28;20353;-68
2021/05/10 00:15:15;;;;;;;4.30;2.00;;;;;;;12.95;100.00;94915.56;1039345;28;20084;-72
2021/05/10 00:15:46;;;;;;;11.40;2.20;;;;;;;12.92;100.00;94916.91;1034274;28;20319;-69
2021/05/10 00:16:17;;;;;;;6.45;2.10;;;;;;;12.81;100.00;94905.06;1033637;28;20030;-71
2021/05/10 00:16:48;;;;;;;4.85;1.88;;;;;;;12.85;100.00;94913.13;1031243;28;20258;-71
2021/05/10 00:17:18;;;;;;;6.88;2.30;;;;;;;12.83;100.00;94913.41;1035121;28;20279;-72
2021/05/10 00:17:49;;;;;;;6.22;1.83;;;;;;;12.78;100.00;94910.91;1045306;28;20033;-72
2021/05/10 00:18:23;;;;;;;3.83;2.38;;;;;;;12.71;100.00;94905.28;1046841;28;20020;-72
2021/05/10 00:18:53;;;;;;;4.80;2.10;;;;;;;12.72;100.00;94912.09;1046669;28;20413;-71
2021/05/10 00:19:23;;;;;;;6.03;1.67;;;;;;;12.70;100.00;94914.22;1038679;28;20268;-73
2021/05/10 00:19:55;;;;;;;1.88;1.60;;;;;;;12.65;100.00;94911.72;1038322;28;20033;-70
2021/05/10 00:20:25;;;;;;;3.00;1.70;;;;;;;12.66;100.00;94913.28;1039202;28;20028;-72
2021/05/10 00:20:55;;;;;;;2.97;1.77;;;;;;;12.66;100.00;94914.03;1047260;28;20281;-71
2021/05/10 00:21:26;;;;;;;5.07;2.00;;;;;;;12.58;100.00;94903.44;1051000;28;20039;-72
2021/05/10 00:21:56;;;;;;;4.38;1.90;;;;;;;12.52;100.00;94897.50;1047173;28;20414;-71
2021/05/10 00:22:27;;;;;;;5.13;2.20;;;;;;;12.58;100.00;94911.34;1043147;28;20033;-71
2021/05/10 00:22:58;;;;;;;3.95;1.83;;;;;;;12.47;100.00;94900.22;1038776;28;20660;-72
2021/05/10 00:23:28;;;;;;;6.18;2.08;;;;;;;12.45;100.00;94913.69;1043247;28;20402;-71
2021/05/10 00:23:59;;;;;;;3.60;1.90;;;;;;;12.52;100.00;94908.03;1043228;28;20260;-73
2021/05/10 00:24:29;;;;;;;8.60;2.10;;;;;;;12.52;100.00;94915.16;1040028;28;20037;-71
2021/05/10 00:25:00;;;;;;;2.67;1.90;;;;;;;12.47;100.00;94911.56;1032089;28;20455;-72
2021/05/10 00:25:33;;;;;;;4.72;1.95;;;;;;;12.45;100.00;94918.19;1034314;28;20566;-71
2021/05/10 00:26:04;;;;;;;10.55;2.03;;;;;;;12.30;100.00;94900.84;1034889;28;20037;-72
2021/05/10 00:26:34;;;;;;;3.72;1.90;;;;;;;12.39;100.00;94914.88;1039321;28;20420;-71
2021/05/10 00:27:05;;;;;;;2.00;1.73;;;;;;;12.37;100.00;94911.75;1042968;28;20041;-72
2021/05/10 00:27:35;;;;;;;4.40;1.83;;;;;;;12.37;100.00;94905.69;1043861;28;20043;-69
2021/05/10 00:28:06;;;;;;;2.10;1.90;;;;;;;12.36;100.00;94909.41;1043354;28;20088;-70
2021/05/10 00:28:36;;;;;;;3.08;1.83;;;;;;;12.33;100.00;94910.78;1045609;28;20032;-72
2021/05/10 00:29:06;;;;;;;4.75;2.28;;;;;;;12.30;100.00;94911.34;1047586;28;20145;-72
2021/05/10 00:29:37;;;;;;;4.55;1.85;;;;;;;12.32;100.00;94914.47;1042984;28;20040;-73
2021/05/10 00:30:08;;;;;;;3.42;1.70;;;;;;;12.29;100.00;94907.19;1040151;28;20036;-72
2021/05/10 00:30:39;;;;;;;6.68;2.30;;;;;;;12.25;100.00;94903.56;1037982;28;20574;-71
2021/05/10 00:31:09;;;;;;;3.47;2.03;;;;;;;12.25;100.00;94909.63;1034531;28;20272;-72
2021/05/10 00:31:39;;;;;;;5.30;2.03;;;;;;;12.26;100.00;94910.38;1034061;28;20018;-72
2021/05/10 00:32:10;;;;;;;2.70;1.90;;;;;;;12.22;100.00;94907.56;1035436;28;20029;-71
2021/05/10 00:32:40;;;;;;;2.00;1.90;;;;;;;12.20;100.00;94912.34;1034916;28;20033;-72
2021/05/10 00:33:11;;;;;;;2.35;1.88;;;;;;;12.13;100.00;94903.28;1031339;28;20088;-72
2021/05/10 00:33:44;;;;;;;5.22;1.80;;;;;;;12.17;100.00;94912.13;1042599;28;20381;-71
2021/05/10 00:34:15;;;;;;;3.30;2.20;;;;;;;12.17;100.00;94917.41;1039276;28;20022;-72
2021/05/10 00:34:45;;;;;;;4.22;2.05;;;;;;;12.13;100.00;94911.16;1039348;28;20268;-72
2021/05/10 00:35:18;;;;;;;4.03;2.13;;;;;;;12.14;100.00;94910.91;1029981;28;20070;-72
2021/05/10 00:35:49;;;;;;;3.67;2.17;;;;;;;12.10;100.00;94911.75;1031051;28;20030;-70
2021/05/10 00:36:19;;;;;;;6.03;2.40;;;;;;;12.07;100.00;94917.59;1031648;28;20759;-72
2021/05/10 00:36:52;;;;;;;4.30;2.33;;;;;;;12.05;100.00;94904.75;1043509;28;20040;-72
2021/05/10 00:37:23;;;;;;;7.10;2.60;;;;;;;12.02;100.00;94915.84;1043558;28;20025;-72
2021/05/10 00:37:53;;;;;;;4.30;2.30;;;;;;;12.00;100.00;94908.25;1043283;28;20267;-72
2021/05/10 00:38:23;;;;;;;7.75;2.50;;;;;;;11.96;100.00;94901.22;1038771;28;20029;-71
2021/05/10 00:38:54;;;;;;;2.80;2.20;;;;;;;11.96;100.00;94911.75;1034934;28;20041;-72
2021/05/10 00:39:25;;;;;;;11.43;2.30;;;;;;;11.95;100.00;94903.09;1038749;28;20032;-71
2021/05/10 00:39:56;;;;;;;4.13;2.35;;;;;;;11.95;100.00;94910.19;1042964;28;20021;-72
2021/05/10 00:40:28;;;;;;;7.05;2.63;;;;;;;11.92;100.00;94911.56;1039154;28;20272;-68
2021/05/10 00:40:59;;;;;;;3.40;2.42;;;;;;;11.83;100.00;94902.75;1039112;28;20065;-71
2021/05/10 00:41:32;;;;;;;4.20;2.10;;;;;;;11.89;100.00;94912.13;1037590;28;20286;-70
2021/05/10 00:42:03;;;;;;;4.75;2.28;;;;;;;11.87;100.00;94909.03;1035142;28;20029;-71
2021/05/10 00:42:33;;;;;;;3.22;2.50;;;;;;;11.77;100.00;94906.56;1038857;28;20270;-72
2021/05/10 00:43:04;;;;;;;3.33;2.33;;;;;;;11.82;100.00;94916.97;1043539;28;20033;-72
2021/05/10 00:43:35;;;;;;;4.00;2.15;;;;;;;11.80;100.00;94916.47;1046836;28;20039;-70
2021/05/10 00:44:05;;;;;;;9.00;2.58;;;;;;;11.79;100.00;94913.06;1047033;28;20059;-70
2021/05/10 00:44:36;;;;;;;2.60;2.05;;;;;;;11.79;100.00;94914.91;1042983;28;20526;-73
2021/05/10 00:45:07;;;;;;;7.95;2.90;;;;;;;11.77;100.00;94914.44;1034185;28;20140;-72
2021/05/10 00:45:37;;;;;;;7.35;2.50;;;;;;;11.75;100.00;94916.56;1038747;28;20495;-71
2021/05/10 00:46:08;;;;;;;10.68;2.50;;;;;;;11.75;100.00;94919.19;1041528;28;20287;-70
2021/05/10 00:46:38;;;;;;;4.75;2.58;;;;;;;11.74;100.00;94915.00;1043205;28;20029;-72
2021/05/10 00:47:09;;;;;;;10.30;2.38;;;;;;;11.71;100.00;94915.59;1046946;28;20039;-71
2021/05/10 00:47:39;;;;;;;2.80;2.10;;;;;;;11.67;100.00;94899.63;1051259;28;20019;-72
2021/05/10 00:48:10;;;;;;;6.57;2.72;;;;;;;11.73;100.00;94910.81;1047090;28;20064;-71
2021/05/10 00:48:43;;;;;;;4.70;2.55;;;;;;;11.73;100.00;94918.69;1041785;28;20021;-73
2021/05/10 00:49:13;;;;;;;3.72;2.40;;;;;;;11.70;100.00;94914.81;1042836;28;20028;-72
2021/05/10 00:49:44;;;;;;;3.95;2.40;;;;;;;11.71;100.00;94920.84;1043205;28;20703;-71
2021/05/10 00:50:16;;;;;;;5.22;2.20;;;;;;;11.69;100.00;94909.84;1042874;28;20021;-71
2021/05/10 00:50:49;;;;;;;3.45;2.20;;;;;;;11.65;100.00;94904.38;1042080;28;20033;-71
2021/05/10 00:51:19;;;;;;;4.20;2.45;;;;;;;11.67;100.00;94906.72;1041984;28;20279;-70
2021/05/10 00:51:49;;;;;;;7.57;2.75;;;;;;;11.65;100.00;94890.47;1034693;28;20269;-71
2021/05/10 00:52:20;;;;;;;2.45;2.10;;;;;;;11.73;100.00;94893.19;1040435;28;20037;-72
2021/05/10 00:52:51;;;;;;;2.53;1.83;;;;;;;11.82;100.00;94900.41;1034754;28;20033;-72
2021/05/10 00:53:21;;;;;;;2.72;1.92;;;;;;;11.85;100.00;94903.28;1039250;28;20021;-70
2021/05/10 00:53:51;;;;;;;2.75;2.13;;;;;;;11.89;100.00;94896.34;1042770;28;20453;-71
2021/05/10 00:54:22;;;;;;;2.90;2.45;;;;;;;11.94;100.00;94909.41;1045763;28;20033;-71
2021/05/10 00:54:52;;;;;;;5.28;2.05;;;;;;;12.10;100.00;94902.00;1038973;28;20021;-72
2021/05/10 00:55:23;;;;;;;2.55;1.80;;;;;;;12.08;100.00;94896.28;1034777;28;20018;-71
2021/05/10 00:55:54;;;;;;;3.70;1.70;;;;;;;12.19;100.00;94894.22;1026890;28;20018;-71
2021/05/10 00:56:25;;;;;;;2.80;2.20;;;;;;;12.20;100.00;94882.63;1030614;28;20027;-70
2021/05/10 00:56:55;;;;;;;2.72;2.05;;;;;;;12.32;100.00;94896.06;1038945;28;20248;-71
2021/05/10 00:57:27;;;;;;;4.15;2.10;;;;;;;12.40;100.00;94897.22;1036003;28;20024;-72
2021/05/10 00:58:01;;;;;;;2.38;2.15;;;;;;;12.35;100.00;94898.13;1026817;28;20557;-71
2021/05/10 00:58:32;;;;;;;2.90;1.92;;;;;;;12.39;100.00;94901.72;1034751;28;20346;-71
2021/05/10 00:59:03;;;;;;;2.90;1.83;;;;;;;12.44;100.00;94899.00;1036354;28;20265;-71
2021/05/10 00:59:33;;;;;;;3.80;2.03;;;;;;;12.49;100.00;94893.59;1043002;28;20025;-71
2021/05/10 01:00:07;;;;;;;2.97;2.33;;;;;;;12.52;100.00;94896.72;1034594;28;20509;-71
2021/05/10 01:00:38;;;;;;;3.80;1.75;;;;;;;12.53;100.00;94903.53;1038082;28;20048;-71
2021/05/10 01:01:09;;;;;;;2.58;1.67;;;;;;;12.63;100.00;94898.06;1038672;28;20311;-70
2021/05/10 01:01:42;;;;;;;3.55;1.63;;;;;;;12.77;100.00;94895.41;1038908;28;20288;-72
2021/05/10 01:02:12;;;;;;;2.58;1.77;;;;;;;12.88;100.00;94894.91;1039688;28;20268;-70
2021/05/10 01:02:43;;;;;;;2.88;1.42;;;;;;;12.84;100.00;94883.38;1042746;28;20113;-72
2021/05/10 01:03:13;;;;;;;2.00;1.58;;;;;;;12.98;98.99;94870.97;1046051;28;20516;-71
2021/05/10 01:03:46;;;;;;;1.77;1.67;;;;;;;13.20;97.63;94891.25;1038896;28;20033;-72
2021/05/10 01:04:16;;;;;;;2.25;1.48;;;;;;;13.25;98.39;94890.41;1041159;28;20567;-71
2021/05/10 01:04:46;;;;;;;2.78;1.75;;;;;;;13.35;96.44;94892.00;1042623;28;20787;-71
2021/05/10 01:05:17;;;;;;;3.30;1.67;;;;;;;13.30;96.69;94885.00;1041866;28;20512;-71
2021/05/10 01:05:47;;;;;;;1.92;1.48;;;;;;;13.39;96.41;94888.47;1038168;28;20026;-70
2021/05/10 01:06:18;;;;;;;1.83;1.38;;;;;;;13.44;95.29;94890.97;1042959;28;20032;-71
2021/05/10 01:06:48;;;;;;;2.90;1.50;;;;;;;13.42;95.19;94892.38;1041287;28;20476;-72
2021/05/10 01:07:19;;;;;;;1.98;1.27;;;;;;;13.40;96.05;94891.88;1043146;28;20360;-70
2021/05/10 01:07:49;;;;;;;2.58;1.58;;;;;;;13.42;95.72;94887.88;1046385;28;20078;-71
2021/05/10 01:08:20;;;;;;;3.17;1.40;;;;;;;13.40;96.37;94889.25;1038759;28;20026;-71
2021/05/10 01:08:50;;;;;;;3.75;1.42;;;;;;;13.41;95.29;94894.22;1034564;28;20026;-71
2021/05/10 01:09:21;;;;;;;3.15;1.50;;;;;;;13.36;95.84;94888.28;1029563;28;20033;-70
2021/05/10 01:09:51;;;;;;;4.43;1.70;;;;;;;13.34;96.37;94885.94;1034805;28;20076;-73
2021/05/10 01:10:22;;;;;;;3.25;1.50;;;;;;;13.33;97.37;94889.66;1046565;28;20025;-72
2021/05/10 01:10:53;;;;;;;3.05;1.60;;;;;;;13.39;95.19;94888.47;1047167;28;20104;-72
2021/05/10 01:11:23;;;;;;;3.92;1.67;;;;;;;13.38;94.25;94883.47;1038960;28;20793;-72
2021/05/10 01:11:54;;;;;;;3.47;1.80;;;;;;;13.41;94.40;94885.50;1038847;28;20511;-72
2021/05/10 01:12:24;;;;;;;2.13;1.48;;;;;;;13.38;95.15;94896.66;1042399;28;20025;-72
2021/05/10 01:12:54;;;;;;;1.85;1.48;;;;;;;13.39;94.93;94896.38;1044172;28;20759;-71
2021/05/10 01:13:29;;;;;;;1.70;1.60;;;;;;;13.43;94.50;94891.28;1034642;28;20026;-71
2021/05/10 01:14:00;;;;;;;2.42;1.40;;;;;;;13.44;94.55;94896.22;1042836;28;20037;-72
2021/05/10 01:14:30;;;;;;;2.38;1.60;;;;;;;13.49;93.54;94891.94;1038818;28;20264;-72
2021/05/10 01:15:01;;;;;;;3.35;1.67;;;;;;;13.37;93.77;94877.44;1036183;28;20025;-70
2021/05/10 01:15:38;;;;;;;3.45;1.67;;;;;;;13.47;94.43;94899.34;1029959;28;20026;-71
2021/05/10 01:16:08;;;;;;;2.08;1.50;;;;;;;13.39;95.26;94880.56;1031594;28;20076;-71
2021/05/10 01:16:39;;;;;;;2.95;1.50;;;;;;;13.40;95.67;94890.00;1036891;28;20265;-70
2021/05/10 01:17:09;;;;;;;2.03;1.55;;;;;;;13.32;96.15;94882.84;1036343;28;20041;-73
2021/05/10 01:17:40;;;;;;;3.85;1.60;;;;;;;13.12;96.67;94856.97;1041390;28;20594;-72
2021/05/10 01:18:10;;;;;;;2.45;1.80;;;;;;;13.25;97.84;94895.66;1038718;28;20390;-71
2021/05/10 01:18:41;;;;;;;2.50;1.70;;;;;;;13.09;99.73;94878.63;1047260;28;20023;-72
2021/05/10 01:19:12;;;;;;;1.90;1.52;;;;;;;13.09;100.00;94894.44;1038284;28;20075;-72
2021/05/10 01:19:42;;;;;;;4.15;1.60;;;;;;;13.04;100.00;94897.16;1038910;28;20252;-71
2021/05/10 01:20:14;;;;;;;2.90;1.65;;;;;;;12.87;100.00;94887.28;1034666;28;20018;-72
2021/05/10 01:20:44;;;;;;;3.80;1.88;;;;;;;12.89;100.00;94896.44;1047196;28;20161;-72
2021/05/10 01:21:15;;;;;;;3.13;2.00;;;;;;;12.84;100.00;94899.19;1042145;28;20267;-71
2021/05/10 01:21:46;;;;;;;3.03;1.90;;;;;;;12.73;100.00;94885.47;1034628;28;20037;-70
2021/05/10 01:22:16;;;;;;;3.00;2.13;;;;;;;12.72;100.00;94891.03;1038761;28;20053;-71
2021/05/10 01:22:54;;;;;;;2.53;2.05;;;;;;;12.60;100.00;94888.13;1038489;28;20089;-71
2021/05/10 01:23:24;;;;;;;3.38;1.98;;;;;;;12.61;100.00;94901.00;1038669;28;20017;-72
2021/05/10 01:23:55;;;;;;;3.40;2.00;;;;;;;12.58;100.00;94901.59;1034777;28;20797;-69
2021/05/10 01:24:26;;;;;;;3.90;2.08;;;;;;;12.47;100.00;94890.50;1038500;28;20048;-72
2021/05/10 01:24:56;;;;;;;2.35;1.58;;;;;;;12.48;100.00;94886.78;1038889;28;20037;-70
2021/05/10 01:25:30;;;;;;;2.38;1.90;;;;;;;12.53;100.00;94893.78;1037961;28;20021;-72
2021/05/10 01:26:04;;;;;;;3.15;2.10;;;;;;;12.52;100.00;94896.72;1035712;28;20010;-72
2021/05/10 01:26:38;;;;;;;2.08;1.90;;;;;;;12.49;100.00;94901.50;1047118;28;20259;-72
2021/05/10 01:27:08;;;;;;;2.72;2.10;;;;;;;12.46;100.00;94904.72;1048517;28;20743;-72
2021/05/10 01:27:38;;;;;;;2.13;1.90;;;;;;;12.39;100.00;94887.78;1046446;28;20267;-70
2021/05/10 01:28:09;;;;;;;2.63;2.22;;;;;;;12.42;100.00;94902.97;1034315;28;20014;-71
2021/05/10 01:28:40;;;;;;;4.43;2.30;;;;;;;12.41;100.00;94898.81;1034822;28;20014;-70
2021/05/10 01:29:11;;;;;;;3.45;1.80;;;;;;;12.40;100.00;94903.25;1047154;28;20476;-70
2021/05/10 01:29:41;;;;;;;3.03;2.30;;;;;;;12.42;100.00;94897.72;1046428;28;20259;-71
2021/05/10 01:30:31;;;;;;;3.00;1.70;;;;;;;12.40;100.00;94884.84;1046940;28;20498;-71
2021/05/10 01:31:02;;;;;;;2.95;2.08;;;;;;;12.48;100.00;94892.06;1038986;28;20620;-71
2021/05/10 01:31:32;;;;;;;3.58;1.90;;;;;;;12.38;100.00;94879.13;1041275;28;20263;-71
2021/05/10 01:32:03;;;;;;;3.22;1.85;;;;;;;12.47;100.00;94895.78;1038979;28;20026;-71
2021/05/10 01:32:33;;;;;;;2.67;1.92;;;;;;;12.38;100.00;94894.91;1036156;28;20026;-71
2021/05/10 01:33:05;;;;;;;2.85;1.85;;;;;;;12.45;100.00;94903.16;1030433;28;20097;-72
2021/05/10 01:33:36;;;;;;;2.28;1.63;;;;;;;12.36;100.00;94889.13;1034508;28;20022;-71
2021/05/10 01:34:06;;;;;;;2.00;1.70;;;;;;;12.44;100.00;94896.34;1030571;28;20336;-71
2021/05/10 01:34:37;;;;;;;2.67;1.80;;;;;;;12.47;100.00;94901.03;1040118;28;20052;-69
2021/05/10 01:35:08;;;;;;;2.47;1.67;;;;;;;12.38;100.00;94881.75;1042472;28;20063;-72
2021/05/10 01:35:40;;;;;;;3.20;1.52;;;;;;;12.47;100.00;94892.34;1028788;28;20031;-70
2021/05/10 01:36:12;;;;;;;2.40;1.90;;;;;;;12.46;100.00;94899.47;1026816;28;20282;-70
2021/05/10 01:36:43;;;;;;;2.35;1.70;;;;;;;12.48;100.00;94897.31;1034886;28;20872;-72
2021/05/10 01:37:13;;;;;;;4.00;1.80;;;;;;;12.49;100.00;94896.25;1039211;28;20306;-72
2021/05/10 01:37:46;;;;;;;3.35;1.70;;;;;;;12.54;100.00;94894.56;1042848;28;20037;-71
2021/05/10 01:38:17;;;;;;;4.10;2.25;;;;;;;12.54;100.00;94892.75;1046000;28;20271;-71
2021/05/10 01:38:47;;;;;;;1.67;1.55;;;;;;;12.54;100.00;94894.56;1047975;28;20449;-70
2021/05/10 01:39:18;;;;;;;2.45;1.70;;;;;;;12.56;100.00;94887.16;1055569;28;20081;-70
2021/05/10 01:39:48;;;;;;;2.58;1.90;;;;;;;12.57;100.00;94888.72;1046582;28;20028;-70
2021/05/10 01:40:19;;;;;;;5.35;1.80;;;;;;;12.49;100.00;94869.94;1042824;28;20418;-72
2021/05/10 01:40:49;;;;;;;2.83;1.73;;;;;;;12.62;100.00;94881.50;1030788;28;20523;-72
2021/05/10 01:41:20;;;;;;;1.65;1.55;;;;;;;12.62;100.00;94880.72;1038290;28;20025;-72
2021/05/10 01:41:50;;;;;;;2.15;1.67;;;;;;;12.62;100.00;94878.09;1038680;28;20033;-72
2021/05/10 01:42:20;;;;;;;1.88;1.65;;;;;;;12.66;100.00;94881.69;1038884;28;20300;-71
2021/05/10 01:42:51;;;;;;;4.32;2.10;;;;;;;12.67;100.00;94873.47;1038902;28;20025;-70
2021/05/10 01:43:21;;;;;;;2.05;1.55;;;;;;;12.74;99.15;94875.72;1042201;28;20083;-71
2021/05/10 01:43:52;;;;;;;3.55;1.65;;;;;;;12.79;98.80;94885.38;1045174;28;20075;-73
2021/05/10 01:44:22;;;;;;;3.30;1.98;;;;;;;12.91;95.49;94875.06;1038983;28;20029;-72
2021/05/10 01:44:53;;;;;;;2.45;1.73;;;;;;;12.93;94.02;94870.28;1041094;28;20029;-70
2021/05/10 01:45:23;;;;;;;3.13;1.77;;;;;;;12.96;95.06;94885.50;1033585;28;20034;-71
2021/05/10 01:45:54;;;;;;;2.17;1.60;;;;;;;13.04;93.02;94881.38;1030421;28;20022;-71
2021/05/10 01:46:24;;;;;;;2.55;1.50;;;;;;;13.10;91.10;94880.94;1029831;28;20084;-70
2021/05/10 01:46:54;;;;;;;2.45;1.30;;;;;;;13.18;88.80;94882.09;1026365;28;20039;-71
2021/05/10 01:47:25;;;;;;;2.33;1.75;;;;;;;13.23;89.33;94879.34;1030393;28;20034;-71
2021/05/10 01:48:04;;;;;;;1.30;1.20;;;;;;;13.27;89.59;94880.31;1034542;28;20078;-72
2021/05/10 01:48:34;;;;;;;3.33;1.92;;;;;;;13.25;89.67;94882.50;1035694;28;20030;-71
2021/05/10 01:49:05;;;;;;;3.28;1.50;;;;;;;13.25;89.50;94881.72;1038680;28;20276;-70
2021/05/10 01:49:35;;;;;;;2.22;1.75;;;;;;;13.16;90.33;94861.31;1039800;28;20052;-70
2021/05/10 01:50:14;;;;;;;3.53;1.70;;;;;;;13.11;92.27;94868.56;1036883;28;20031;-71
2021/05/10 01:50:45;;;;;;;2.10;1.50;;;;;;;13.12;93.24;94876.19;1046742;28;20104;-72
2021/05/10 01:51:16;;;;;;;2.42;1.30;;;;;;;13.09;94.74;94878.63;1045297;28;20255;-72
2021/05/10 01:51:46;;;;;;;3.67;1.98;;;;;;;12.97;96.95;94865.97;1040809;28;21116;-71
2021/05/10 01:52:17;;;;;;;5.35;2.25;;;;;;;12.93;98.33;94873.69;1037855;28;20776;-71
2021/05/10 01:52:48;;;;;;;2.45;1.80;;;;;;;12.92;100.00;94882.69;1034572;28;20398;-71
2021/05/10 01:53:18;;;;;;;3.08;1.60;;;;;;;12.83;100.00;94867.88;1038260;28;20022;-70
2021/05/10 01:53:49;;;;;;;6.13;1.65;;;;;;;12.79;100.00;94874.84;1038454;28;20108;-71
2021/05/10 01:54:20;;;;;;;4.00;2.03;;;;;;;12.73;100.00;94863.63;1038338;28;20022;-70
2021/05/10 01:54:51;;;;;;;8.70;1.98;;;;;;;12.77;100.00;94883.00;1038483;28;20032;-71
2021/05/10 01:55:22;;;;;;;4.65;2.13;;;;;;;12.73;100.00;94887.31;1030067;28;20630;-70
2021/05/10 01:55:53;;;;;;;9.57;2.00;;;;;;;12.68;100.00;94880.31;1039221;28;20748;-70
2021/05/10 01:56:23;;;;;;;2.85;1.58;;;;;;;12.66;100.00;94885.09;1047008;28;20259;-71
2021/05/10 01:56:54;;;;;;;4.97;2.28;;;;;;;12.62;100.00;94883.34;1046770;28;20024;-72
2021/05/10 01:57:24;;;;;;;4.43;2.10;;;;;;;12.58;100.00;94887.66;1046649;28;20126;-72
2021/05/10 01:57:58;;;;;;;4.75;1.83;;;;;;;12.55;100.00;94883.00;1038616;28;20075;-72
2021/05/10 01:58:29;;;;;;;7.93;1.67;;;;;;;12.50;100.00;94881.22;1029348;28;20026;-72
2021/05/10 01:58:59;;;;;;;7.68;2.50;;;;;;;12.51;100.00;94888.06;1026399;28;20286;-70
2021/05/10 01:59:30;;;;;;;7.13;2.08;;;;;;;12.49;100.00;94888.34;1027343;28;20078;-71
2021/05/10 02:00:03;;;;;;;5.30;2.20;;;;;;;12.48;100.00;94884.16;1038150;28;20093;-70
2021/05/10 02:00:44;;;;;;;6.43;2.35;;;;;;;12.45;100.00;94886.59;1042778;28;20021;-72
2021/05/10 02:01:14;;;;;;;;;;;;;;;12.43;100.00;94894.78;1043149;28;20259;-71
2021/05/10 02:01:44;;;;;;;4.53;1.95;;;;;;;12.33;100.00;94879.19;1040096;28;20305;-72
2021/05/10 02:02:15;;;;;;;1.88;1.50;;;;;;;12.38;100.00;94887.00;1042648;28;20017;-72
2021/05/10 02:02:46;;;;;;;3.47;1.70;;;;;;;12.39;100.00;94899.06;1034187;28;20045;-72
2021/05/10 02:03:23;;;;;;;5.10;1.90;;;;;;;12.40;100.00;94892.72;1042739;28;20022;-72
2021/05/10 02:03:53;;;;;;;3.05;1.77;;;;;;;12.39;100.00;94887.78;1034473;28;20052;-71
2021/05/10 02:04:24;;;;;;;7.63;1.83;;;;;;;12.37;100.00;94885.44;1036311;28;20366;-73
2021/05/10 02:05:15;;;;;;;2.70;1.60;;;;;;;12.37;100.00;94887.28;1045592;28;20032;-71
2021/05/10 02:05:50;;;;;;;3.17;1.50;;;;;;;12.29;100.00;94875.59;1042572;28;20507;-71
2021/05/10 02:06:20;;;;;;;3.10;1.58;;;;;;;12.27;100.00;94875.13;1038455;28;20264;-71
2021/05/10 02:07:00;;;;;;;6.20;2.20;;;;;;;12.23;100.00;94874.16;1041979;28;20255;-71
2021/05/10 02:07:31;;;;;;;3.25;1.70;;;;;;;12.30;100.00;94887.69;1038497;28;20052;-72
2021/05/10 02:08:03;;;;;;;4.68;1.80;;;;;;;12.31;100.00;94888.47;1038404;28;20844;-72
2021/05/10 02:08:33;;;;;;;4.93;1.90;;;;;;;12.29;100.00;94883.50;1042528;28;20052;-71
2021/05/10 02:09:04;;;;;;;5.75;2.00;;;;;;;12.29;100.00;94888.75;1042630;28;20858;-71
2021/05/10 02:09:35;;;;;;;4.95;1.88;;;;;;;12.28;100.00;94887.22;1039682;28;20029;-72
2021/05/10 02:10:07;;;;;;;3.83;1.75;;;;;;;12.31;100.00;94888.47;1042137;28;20044;-71
2021/05/10 02:10:39;;;;;;;1.80;1.50;;;;;;;12.29;100.00;94883.50;1042653;28;20165;-71
2021/05/10 02:11:10;;;;;;;2.70;1.70;;;;;;;12.31;100.00;94881.38;1038089;28;20290;-71
2021/05/10 02:11:45;;;;;;;4.70;2.03;;;;;;;12.39;100.00;94887.78;1042849;28;20270;-72
2021/05/10 02:12:15;;;;;;;2.13;1.40;;;;;;;12.35;100.00;94887.59;1040305;28;20497;-71
2021/05/10 02:12:56;;;;;;;2.60;1.90;;;;;;;12.32;100.00;94885.53;1042662;28;20390;-72
2021/05/10 02:13:29;;;;;;;3.55;1.95;;;;;;;12.27;100.00;94875.91;1036849;28;20122;-71
2021/05/10 02:14:00;;;;;;;2.50;1.73;;;;;;;12.36;100.00;94889.13;1042065;28;20263;-72
2021/05/10 02:14:31;;;;;;;2.67;1.58;;;;;;;12.28;100.00;94881.94;1044395;28;20076;-71
2021/05/10 02:15:04;;;;;;;5.78;1.80;;;;;;;12.40;100.00;94891.97;1035345;28;21590;-69
2021/05/10 02:15:58;;;;;;;4.60;1.90;;;;;;;12.41;100.00;94890.91;1030137;28;20320;-71
2021/05/10 02:16:28;;;;;;;4.35;1.55;;;;;;;12.40;100.00;94887.47;1028296;28;20296;-73
2021/05/10 02:16:59;;;;;;;3.35;1.70;;;;;;;12.42;100.00;94887.97;1033916;28;20280;-72
2021/05/10 02:17:29;;;;;;;5.18;1.58;;;;;;;12.40;100.00;94887.47;1034312;28;20439;-69
2021/05/10 02:18:00;;;;;;;1.70;1.38;;;;;;;12.43;100.00;94888.75;1034769;28;20391;-71
2021/05/10 02:18:32;;;;;;;3.42;1.40;;;;;;;12.43;100.00;94884.25;1038597;28;20176;-71
2021/05/10 02:19:03;;;;;;;6.60;2.03;;;;;;;12.35;100.00;94871.81;1044745;28;20473;-71
2021/05/10 02:19:37;;;;;;;2.63;1.73;;;;;;;12.42;100.00;94885.34;1046747;28;20756;-72
2021/05/10 02:20:07;;;;;;;5.07;2.05;;;;;;;12.41;100.00;94888.28;1043435;28;20298;-71
2021/05/10 02:20:38;;;;;;;4.63;1.50;;;;;;;12.35;100.00;94882.34;1033029;28;20292;-71
2021/05/10 02:21:09;;;;;;;4.30;1.92;;;;;;;12.31;100.00;94865.59;1030328;28;20018;-70
2021/05/10 02:21:42;;;;;;;2.38;1.65;;;;;;;12.36;100.00;94883.09;1038430;28;20530;-71
2021/05/10 02:22:16;;;;;;;3.38;1.83;;;;;;;12.33;100.00;94881.06;1039608;28;20299;-70
2021/05/10 02:22:53;;;;;;;1.90;1.70;;;;;;;12.31;100.00;94876.09;1045677;28;20008;-72
2021/05/10 02:23:28;;;;;;;3.42;1.58;;;;;;;12.33;100.00;94879.19;1044474;28;20299;-71
2021/05/10 02:23:58;;;;;;;5.95;2.00;;;;;;;12.35;99.58;94882.34;1042733;28;20266;-71
2021/05/10 02:24:35;;;;;;;5.85;1.52;;;;;;;12.36;99.62;94878.63;1045352;28;20252;-71
2021/05/10 02:25:06;;;;;;;2.50;1.60;;;;;;;12.29;99.18;94866.94;1042662;28;20123;-72
2021/05/10 02:25:38;;;;;;;3.58;1.75;;;;;;;12.38;98.76;94887.00;1039538;28;20256;-73
2021/05/10 02:26:08;;;;;;;1.70;1.50;;;;;;;12.37;97.80;94885.44;1035333;28;20026;-72
2021/05/10 02:26:39;;;;;;;2.17;1.35;;;;;;;12.28;100.00;94871.44;1031394;28;20264;-72